createdAt,value
2023-04-07T00:01:25.029Z,100148.66
2023-04-07T00:03:54.392Z,100149.13
2023-04-07T00:06:23.469Z,100153.00
2023-04-07T00:08:53.876Z,100146.25
2023-04-07T00:11:22.461Z,100141.44
2023-04-07T00:13:51.147Z,100142.19
2023-04-07T00:16:20.161Z,100151.16
2023-04-07T00:18:49.144Z,100133.94
2023-04-07T00:21:18.030Z,100136.22
2023-04-07T00:23:47.139Z,100140.88
2023-04-07T00:26:17.445Z,100141.81
2023-04-07T00:28:46.464Z,100144.28
2023-04-07T00:31:15.664Z,100140.41
2023-04-07T00:33:44.599Z,100133.94
2023-04-07T00:36:13.430Z,100134.19
2023-04-07T00:38:42.473Z,100134.50
2023-04-07T00:41:11.570Z,100131.88
2023-04-07T00:43:41.728Z,100134.56
2023-04-07T00:46:11.826Z,100122.16
2023-04-07T00:48:40.838Z,100125.81
2023-04-07T00:51:09.851Z,100122.47
2023-04-07T00:53:38.887Z,100118.06
2023-04-07T00:56:08.596Z,100125.53
2023-04-07T00:58:37.528Z,100116.38
2023-04-07T01:01:10.859Z,100116.16
2023-04-07T01:03:47.051Z,100117.22
2023-04-07T01:06:17.762Z,100109.63
2023-04-07T01:08:52.566Z,100112.38
2023-04-07T01:11:26.117Z,100110.50
2023-04-07T01:13:56.878Z,100117.19
2023-04-07T01:16:53.704Z,100111.28
2023-04-07T01:19:35.145Z,100108.66
2023-04-07T01:22:05.650Z,100110.72
2023-04-07T01:24:43.692Z,100110.88
2023-04-07T01:27:22.890Z,100109.84
2023-04-07T01:29:54.210Z,100110.50
2023-04-07T01:32:24.283Z,100112.31
2023-04-07T01:34:55.108Z,100105.81
2023-04-07T01:37:24.455Z,100110.66
2023-04-07T01:39:55.073Z,100110.94
2023-04-07T01:42:24.378Z,100096.53
2023-04-07T01:44:54.859Z,100099.84
2023-04-07T01:47:24.313Z,100101.78
2023-04-07T01:49:53.792Z,100094.94
2023-04-07T01:52:23.188Z,100095.91
2023-04-07T01:54:52.282Z,100095.91
2023-04-07T01:57:21.318Z,100101.06
2023-04-07T01:59:56.399Z,100098.47
2023-04-07T02:02:27.807Z,100090.44
2023-04-07T02:04:57.719Z,100086.56
2023-04-07T02:07:31.261Z,100084.31
2023-04-07T02:10:02.121Z,100098.22
2023-04-07T02:12:31.841Z,100094.06
2023-04-07T02:15:12.787Z,100091.88
2023-04-07T02:17:49.721Z,100092.03
2023-04-07T02:20:19.052Z,100096.88
2023-04-07T02:22:47.988Z,100098.78
2023-04-07T02:25:24.035Z,100095.44
2023-04-07T02:27:52.972Z,100096.97
2023-04-07T02:30:23.541Z,100091.97
2023-04-07T02:32:53.390Z,100090.47
2023-04-07T02:35:22.599Z,100087.44
2023-04-07T02:37:51.570Z,100090.38
2023-04-07T02:40:20.534Z,100089.81
2023-04-07T02:42:49.722Z,100090.91
2023-04-07T02:45:18.778Z,100091.59
2023-04-07T02:47:49.336Z,100083.25
2023-04-07T02:50:20.176Z,100091.06
2023-04-07T02:52:48.694Z,100090.34
2023-04-07T02:55:18.634Z,100087.19
2023-04-07T02:57:47.800Z,100089.94
2023-04-07T03:00:35.108Z,100089.81
2023-04-07T03:03:18.785Z,100086.91
2023-04-07T03:06:07.458Z,100083.56
2023-04-07T03:08:42.347Z,100097.72
2023-04-07T03:11:11.204Z,100096.06
2023-04-07T03:13:40.399Z,100091.88
2023-04-07T03:16:09.458Z,100093.84
2023-04-07T03:18:49.095Z,100097.47
2023-04-07T03:21:18.870Z,100105.09
2023-04-07T03:23:47.775Z,100091.34
2023-04-07T03:26:16.761Z,100096.06
2023-04-07T03:28:45.288Z,100103.72
2023-04-07T03:31:15.617Z,100100.22
2023-04-07T03:33:44.645Z,100092.88
2023-04-07T03:36:15.312Z,100094.69
2023-04-07T03:38:44.272Z,100096.63
2023-04-07T03:41:14.399Z,100095.81
2023-04-07T03:43:43.154Z,100095.94
2023-04-07T03:46:13.194Z,100089.69
2023-04-07T03:48:42.243Z,100093.84
2023-04-07T03:51:14.532Z,100093.69
2023-04-07T03:53:43.550Z,100096.75
2023-04-07T03:56:32.810Z,100094.97
2023-04-07T03:59:01.757Z,100090.50
2023-04-07T04:01:35.022Z,100095.50
2023-04-07T04:04:11.872Z,100092.16
2023-04-07T04:06:42.558Z,100088.00
2023-04-07T04:09:34.243Z,100093.00
2023-04-07T04:12:03.458Z,100089.78
2023-04-07T04:14:33.683Z,100090.22
2023-04-07T04:17:05.418Z,100089.34
2023-04-07T04:19:45.110Z,100096.56
2023-04-07T04:22:24.813Z,100096.44
2023-04-07T04:24:56.819Z,100093.91
2023-04-07T04:27:27.718Z,100098.78
2023-04-07T04:30:05.092Z,100097.16
2023-04-07T04:32:41.622Z,100103.25
2023-04-07T04:35:11.445Z,100108.25
2023-04-07T04:37:50.406Z,100109.50
2023-04-07T04:40:19.670Z,100115.78
2023-04-07T04:42:50.821Z,100114.66
2023-04-07T04:45:21.975Z,100109.81
2023-04-07T04:47:52.153Z,100113.53
2023-04-07T04:50:21.312Z,100115.06
2023-04-07T04:52:52.306Z,100113.81
2023-04-07T04:55:24.633Z,100113.00
2023-04-07T04:57:55.392Z,100113.81
2023-04-07T05:00:34.374Z,100107.56
2023-04-07T05:03:07.202Z,100114.25
2023-04-07T05:05:40.297Z,100113.97
2023-04-07T05:08:12.772Z,100109.38
2023-04-07T05:10:42.160Z,100109.66
2023-04-07T05:13:15.672Z,100110.91
2023-04-07T05:15:44.641Z,100109.63
2023-04-07T05:18:16.446Z,100109.91
2023-04-07T05:20:45.713Z,100112.38
2023-04-07T05:23:16.739Z,100110.59
2023-04-07T05:25:48.314Z,100113.06
2023-04-07T05:28:17.460Z,100113.19
2023-04-07T05:30:46.509Z,100122.22
2023-04-07T05:33:15.871Z,100121.22
2023-04-07T05:35:49.060Z,100111.63
2023-04-07T05:38:19.371Z,100117.28
2023-04-07T05:40:48.415Z,100117.63
2023-04-07T05:43:25.497Z,100113.09
2023-04-07T05:45:54.726Z,100116.13
2023-04-07T05:48:24.750Z,100118.84
2023-04-07T05:50:55.018Z,100115.84
2023-04-07T05:53:25.658Z,100109.97
2023-04-07T05:55:54.541Z,100118.41
2023-04-07T05:58:46.342Z,100111.91
2023-04-07T06:01:16.599Z,100115.03
2023-04-07T06:03:45.686Z,100114.91
2023-04-07T06:06:21.633Z,100115.75
2023-04-07T06:08:52.248Z,100118.78
2023-04-07T06:11:21.436Z,100121.94
2023-04-07T06:13:50.368Z,100116.72
2023-04-07T06:16:19.924Z,100116.13
2023-04-07T06:18:49.019Z,100119.28
2023-04-07T06:21:18.015Z,100120.94
2023-04-07T06:23:47.466Z,100115.34
2023-04-07T06:26:18.000Z,100113.84
2023-04-07T06:28:46.882Z,100115.78
2023-04-07T06:31:16.797Z,100117.50
2023-04-07T06:33:45.857Z,100112.41
2023-04-07T06:36:15.648Z,100108.78
2023-04-07T06:38:44.748Z,100105.22
2023-04-07T06:41:17.081Z,100110.94
2023-04-07T06:43:49.488Z,100105.06
2023-04-07T06:46:18.947Z,100114.63
2023-04-07T06:48:47.912Z,100111.44
2023-04-07T06:51:16.820Z,100109.34
2023-04-07T06:53:47.722Z,100105.81
2023-04-07T06:56:16.769Z,100107.78
2023-04-07T06:58:46.682Z,100112.84
2023-04-07T07:01:15.404Z,100120.19
2023-04-07T07:03:44.420Z,100119.94
2023-04-07T07:06:13.417Z,100120.31
2023-04-07T07:08:42.290Z,100106.34
2023-04-07T07:11:11.466Z,100111.31
2023-04-07T07:13:39.892Z,100109.81
2023-04-07T07:16:10.327Z,100105.75
2023-04-07T07:18:39.324Z,100108.06
2023-04-07T07:21:08.215Z,100110.69
2023-04-07T07:23:37.225Z,100100.75
2023-04-07T07:26:06.161Z,100107.25
2023-04-07T07:28:34.753Z,100107.66
2023-04-07T07:31:13.320Z,100110.00
2023-04-07T07:33:44.269Z,100116.00
2023-04-07T07:36:13.687Z,100119.63
2023-04-07T07:38:42.589Z,100122.47
2023-04-07T07:41:11.494Z,100123.28
2023-04-07T07:43:40.027Z,100127.25
2023-04-07T07:46:08.972Z,100119.53
2023-04-07T07:48:39.329Z,100125.91
2023-04-07T07:51:07.995Z,100130.75
2023-04-07T07:53:36.820Z,100127.56
2023-04-07T07:56:05.915Z,100125.69
2023-04-07T07:58:34.861Z,100128.97
2023-04-07T08:01:03.947Z,100129.59
2023-04-07T08:03:33.242Z,100127.19
2023-04-07T08:06:03.764Z,100131.56
2023-04-07T08:08:32.364Z,100136.38
2023-04-07T08:11:01.379Z,100125.91
2023-04-07T08:13:29.958Z,100130.38
2023-04-07T08:15:59.006Z,100119.41
2023-04-07T08:18:28.159Z,100133.00
2023-04-07T08:20:57.686Z,100123.69
2023-04-07T08:23:28.024Z,100119.88
2023-04-07T08:25:56.596Z,100127.69
2023-04-07T08:28:25.961Z,100132.38
2023-04-07T08:30:54.901Z,100142.13
2023-04-07T08:33:24.629Z,100132.19
2023-04-07T08:35:53.679Z,100131.63
2023-04-07T08:38:22.608Z,100129.41
2023-04-07T08:41:02.678Z,100122.91
2023-04-07T08:43:31.969Z,100129.78
2023-04-07T08:46:01.629Z,100126.81
2023-04-07T08:48:34.106Z,100124.53
2023-04-07T08:51:06.728Z,100125.75
2023-04-07T08:53:39.754Z,100127.19
2023-04-07T08:56:10.780Z,100128.44
2023-04-07T08:58:39.540Z,100130.13
2023-04-07T09:01:08.781Z,100125.78
2023-04-07T09:03:38.231Z,100132.28
2023-04-07T09:06:07.447Z,100127.41
2023-04-07T09:08:36.387Z,100131.44
2023-04-07T09:11:05.813Z,100133.00
2023-04-07T09:13:35.890Z,100128.84
2023-04-07T09:16:05.130Z,100122.38
2023-04-07T09:18:34.301Z,100127.63
2023-04-07T09:21:04.426Z,100121.56
2023-04-07T09:23:34.853Z,100123.56
2023-04-07T09:26:22.168Z,100130.63
2023-04-07T09:28:54.583Z,100128.81
2023-04-07T09:31:26.338Z,100122.19
2023-04-07T09:33:55.641Z,100126.38
2023-04-07T09:36:27.214Z,100120.34
2023-04-07T09:38:56.225Z,100124.13
2023-04-07T09:41:25.239Z,100122.75
2023-04-07T09:43:58.407Z,100130.31
2023-04-07T09:46:28.219Z,100131.97
2023-04-07T09:49:05.147Z,100128.25
2023-04-07T09:51:34.675Z,100127.56
2023-04-07T09:54:03.917Z,100122.53
2023-04-07T09:56:32.890Z,100130.91
2023-04-07T09:59:03.632Z,100125.72
2023-04-07T10:01:32.478Z,100125.59
2023-04-07T10:04:01.892Z,100122.41
2023-04-07T10:06:30.982Z,100127.59
2023-04-07T10:08:59.937Z,100130.00
2023-04-07T10:11:30.457Z,100131.13
2023-04-07T10:13:59.403Z,100135.16
2023-04-07T10:16:29.524Z,100134.56
2023-04-07T10:18:58.673Z,100128.78
2023-04-07T10:21:27.964Z,100127.91
2023-04-07T10:24:01.760Z,100128.38
2023-04-07T10:26:32.151Z,100132.22
2023-04-07T10:29:01.922Z,100127.31
2023-04-07T10:31:32.129Z,100126.66
2023-04-07T10:34:02.793Z,100135.56
2023-04-07T10:36:31.894Z,100136.75
2023-04-07T10:39:25.307Z,100134.38
2023-04-07T10:41:54.322Z,100137.28
2023-04-07T10:44:50.537Z,100139.44
2023-04-07T10:47:20.609Z,100144.06
2023-04-07T10:50:07.509Z,100149.22
2023-04-07T10:52:36.504Z,100142.97
2023-04-07T10:55:34.456Z,100143.63
2023-04-07T10:58:25.333Z,100145.19
2023-04-07T11:01:21.446Z,100142.94
2023-04-07T11:04:00.095Z,100149.41
2023-04-07T11:06:29.286Z,100147.47
2023-04-07T11:08:58.200Z,100142.75
2023-04-07T11:11:43.120Z,100144.94
2023-04-07T11:14:11.786Z,100153.75
2023-04-07T11:16:42.956Z,100154.66
2023-04-07T11:19:13.936Z,100152.47
2023-04-07T11:21:42.932Z,100153.66
2023-04-07T11:24:12.060Z,100141.13
2023-04-07T11:26:42.710Z,100145.06
2023-04-07T11:29:13.094Z,100146.53
2023-04-07T11:31:41.725Z,100144.69
2023-04-07T11:34:12.341Z,100140.63
2023-04-07T11:36:43.423Z,100146.53
2023-04-07T11:39:22.348Z,100149.88
2023-04-07T11:41:52.099Z,100146.66
2023-04-07T11:44:21.078Z,100148.03
2023-04-07T11:46:56.617Z,100148.84
2023-04-07T11:49:28.320Z,100154.59
2023-04-07T11:52:01.876Z,100156.00
2023-04-07T11:54:41.706Z,100151.78
2023-04-07T11:57:13.010Z,100157.59
2023-04-07T11:59:42.574Z,100156.41
2023-04-07T12:02:11.543Z,100159.34
2023-04-07T12:04:57.472Z,100163.03
2023-04-07T12:07:28.351Z,100161.69
2023-04-07T12:09:58.079Z,100168.38
2023-04-07T12:12:28.539Z,100165.28
2023-04-07T12:14:58.424Z,100165.63
2023-04-07T12:17:28.405Z,100165.69
2023-04-07T12:19:58.555Z,100166.53
2023-04-07T12:22:27.432Z,100169.56
2023-04-07T12:24:56.435Z,100166.97
2023-04-07T12:27:39.618Z,100170.25
2023-04-07T12:30:11.584Z,100175.91
2023-04-07T12:32:40.556Z,100175.84
2023-04-07T12:35:11.047Z,100175.34
2023-04-07T12:37:39.554Z,100173.47
2023-04-07T12:40:09.739Z,100173.69
2023-04-07T12:42:38.642Z,100172.31
2023-04-07T12:45:08.482Z,100182.66
2023-04-07T12:47:40.358Z,100183.81
2023-04-07T12:50:11.582Z,100185.66
2023-04-07T12:52:40.278Z,100189.34
2023-04-07T12:55:09.622Z,100191.19
2023-04-07T12:57:38.961Z,100185.66
2023-04-07T13:00:10.079Z,100189.31
2023-04-07T13:02:39.201Z,100181.72
2023-04-07T13:05:08.625Z,100204.63
2023-04-07T13:07:38.558Z,100192.69
2023-04-07T13:10:09.406Z,100204.13
2023-04-07T13:12:40.025Z,100204.25
2023-04-07T13:15:09.461Z,100197.34
2023-04-07T13:17:38.903Z,100210.63
2023-04-07T13:20:09.144Z,100203.03
2023-04-07T13:22:48.789Z,100203.91
2023-04-07T13:25:20.858Z,100220.50
2023-04-07T13:27:49.876Z,100211.75
2023-04-07T13:30:20.848Z,100217.63
2023-04-07T13:32:51.199Z,100216.56
2023-04-07T13:35:20.520Z,100230.56
2023-04-07T13:37:50.548Z,100219.09
2023-04-07T13:40:19.140Z,100221.50
2023-04-07T13:42:48.176Z,100227.03
2023-04-07T13:45:17.014Z,100233.34
2023-04-07T13:47:46.339Z,100231.25
2023-04-07T13:50:15.998Z,100228.59
2023-04-07T13:52:44.622Z,100224.13
2023-04-07T13:55:16.167Z,100224.09
2023-04-07T13:57:45.101Z,100219.50
2023-04-07T14:00:15.610Z,100225.84
2023-04-07T14:02:46.005Z,100223.25
2023-04-07T14:05:15.061Z,100224.78
2023-04-07T14:07:43.477Z,100229.31
2023-04-07T14:10:14.716Z,100228.41
2023-04-07T14:12:43.373Z,100223.47
2023-04-07T14:15:12.338Z,100229.84
2023-04-07T14:17:41.295Z,100237.41
2023-04-07T14:20:10.804Z,100228.78
2023-04-07T14:22:39.397Z,100233.16
2023-04-07T14:25:09.096Z,100239.44
2023-04-07T14:27:39.575Z,100246.03
2023-04-07T14:30:09.738Z,100244.03
2023-04-07T14:32:38.893Z,100262.84
2023-04-07T14:35:08.812Z,100272.38
2023-04-07T14:37:37.285Z,100272.03
2023-04-07T14:40:07.511Z,100264.59
2023-04-07T14:42:37.059Z,100268.31
2023-04-07T14:45:08.413Z,100252.59
2023-04-07T14:47:37.379Z,100270.06
2023-04-07T14:50:07.179Z,100270.97
2023-04-07T14:52:37.239Z,100277.81
2023-04-07T14:55:06.237Z,100282.59
2023-04-07T14:57:35.166Z,100284.09
2023-04-07T15:00:07.625Z,100293.91
2023-04-07T15:02:37.259Z,100288.91
2023-04-07T15:05:06.868Z,100279.88
2023-04-07T15:07:35.515Z,100283.22
2023-04-07T15:10:04.453Z,100294.22
2023-04-07T15:12:33.570Z,100291.59
2023-04-07T15:15:02.459Z,100299.75
2023-04-07T15:17:43.160Z,100302.56
2023-04-07T15:20:13.513Z,100310.38
2023-04-07T15:22:42.194Z,100304.91
2023-04-07T15:25:11.132Z,100311.53
2023-04-07T15:27:40.176Z,100319.19
2023-04-07T15:30:10.118Z,100318.88
2023-04-07T15:32:40.433Z,100315.22
2023-04-07T15:35:09.525Z,100312.69
2023-04-07T15:37:38.628Z,100318.03
2023-04-07T15:40:09.209Z,100316.72
2023-04-07T15:42:41.749Z,100322.34
2023-04-07T15:45:11.919Z,100328.69
2023-04-07T15:47:42.453Z,100332.19
2023-04-07T15:50:12.306Z,100319.84
2023-04-07T15:52:40.833Z,100324.81
2023-04-07T15:55:10.788Z,100324.50
2023-04-07T15:57:39.813Z,100341.50
2023-04-07T16:00:09.941Z,100328.69
2023-04-07T16:02:39.396Z,100331.81
2023-04-07T16:05:10.052Z,100330.47
2023-04-07T16:07:38.732Z,100330.97
2023-04-07T16:10:09.036Z,100335.91
2023-04-07T16:12:38.105Z,100334.09
2023-04-07T16:15:09.910Z,100336.59
2023-04-07T16:17:40.522Z,100342.56
2023-04-07T16:20:14.741Z,100343.72
2023-04-07T16:22:43.968Z,100349.16
2023-04-07T16:25:13.038Z,100349.81
2023-04-07T16:27:42.068Z,100351.00
2023-04-07T16:30:13.854Z,100361.97
2023-04-07T16:32:44.668Z,100366.59
2023-04-07T16:35:16.079Z,100366.38
2023-04-07T16:37:46.369Z,100371.63
2023-04-07T16:40:16.235Z,100369.06
2023-04-07T16:42:45.226Z,100374.22
2023-04-07T16:45:14.343Z,100380.75
2023-04-07T16:47:44.648Z,100391.13
2023-04-07T16:50:14.745Z,100393.38
2023-04-07T16:52:43.300Z,100406.06
2023-04-07T16:55:12.529Z,100413.34
2023-04-07T16:57:41.437Z,100413.75
2023-04-07T17:00:11.545Z,100419.28
2023-04-07T17:02:40.618Z,100421.00
2023-04-07T17:05:10.557Z,100424.78
2023-04-07T17:07:40.603Z,100432.22
2023-04-07T17:10:11.545Z,100437.41
2023-04-07T17:12:40.466Z,100445.81
2023-04-07T17:15:10.054Z,100443.44
2023-04-07T17:17:39.485Z,100448.47
2023-04-07T17:20:09.552Z,100453.06
2023-04-07T17:22:38.122Z,100453.25
2023-04-07T17:25:12.327Z,100453.53
2023-04-07T17:27:41.422Z,100452.91
2023-04-07T17:30:11.009Z,100457.81
2023-04-07T17:32:40.198Z,100460.16
2023-04-07T17:35:10.144Z,100461.00
2023-04-07T17:37:39.208Z,100469.78
2023-04-07T17:40:11.048Z,100474.66
2023-04-07T17:42:40.147Z,100481.31
2023-04-07T17:45:10.109Z,100492.03
2023-04-07T17:47:39.212Z,100483.84
2023-04-07T17:50:09.012Z,100495.00
2023-04-07T17:52:37.784Z,100500.97
2023-04-07T17:55:08.545Z,100501.75
2023-04-07T17:57:38.963Z,100501.09
2023-04-07T18:00:08.136Z,100510.00
2023-04-07T18:02:43.826Z,100512.47
2023-04-07T18:05:13.148Z,100514.50
2023-04-07T18:07:42.175Z,100519.91
2023-04-07T18:10:11.641Z,100521.03
2023-04-07T18:12:42.138Z,100530.28
2023-04-07T18:15:11.685Z,100530.81
2023-04-07T18:17:41.356Z,100541.13
2023-04-07T18:20:11.732Z,100543.25
2023-04-07T18:22:40.425Z,100549.78
2023-04-07T18:25:10.193Z,100546.28
2023-04-07T18:27:39.127Z,100554.34
2023-04-07T18:30:10.739Z,100556.75
2023-04-07T18:32:39.934Z,100548.22
2023-04-07T18:35:09.601Z,100558.25
2023-04-07T18:37:38.398Z,100561.88
2023-04-07T18:40:08.768Z,100572.88
2023-04-07T18:42:37.560Z,100568.88
2023-04-07T18:45:08.052Z,100568.72
2023-04-07T18:47:39.119Z,100571.66
2023-04-07T18:50:09.230Z,100584.19
2023-04-07T18:52:37.805Z,100577.94
2023-04-07T18:55:09.139Z,100591.72
2023-04-07T18:57:40.392Z,100590.06
2023-04-07T19:00:10.122Z,100588.66
2023-04-07T19:02:44.647Z,100594.50
2023-04-07T19:05:14.143Z,100588.81
2023-04-07T19:07:42.748Z,100605.09
2023-04-07T19:10:11.716Z,100602.59
2023-04-07T19:12:40.756Z,100609.31
2023-04-07T19:15:11.366Z,100613.16
2023-04-07T19:17:41.822Z,100611.38
2023-04-07T19:20:11.315Z,100615.81
2023-04-07T19:22:39.799Z,100628.31
2023-04-07T19:25:09.761Z,100617.91
2023-04-07T19:27:39.643Z,100633.75
2023-04-07T19:30:09.886Z,100618.28
2023-04-07T19:32:39.115Z,100640.03
2023-04-07T19:35:10.709Z,100628.41
2023-04-07T19:37:40.376Z,100639.31
2023-04-07T19:40:10.042Z,100635.97
2023-04-07T19:42:39.470Z,100644.63
2023-04-07T19:45:09.636Z,100643.38
2023-04-07T19:47:39.242Z,100650.34
2023-04-07T19:50:11.325Z,100645.84
2023-04-07T19:52:40.115Z,100645.69
2023-04-07T19:55:10.768Z,100665.47
2023-04-07T19:57:40.557Z,100659.34
2023-04-07T20:00:10.683Z,100654.63
2023-04-07T20:02:50.066Z,100667.81
2023-04-07T20:05:20.918Z,100669.09
2023-04-07T20:07:49.171Z,100681.56
2023-04-07T20:10:18.232Z,100683.44
2023-04-07T20:12:47.341Z,100679.47
2023-04-07T20:15:16.926Z,100683.75
2023-04-07T20:17:48.125Z,100695.44
2023-04-07T20:20:17.950Z,100689.44
2023-04-07T20:22:47.944Z,100703.59
2023-04-07T20:25:17.091Z,100692.34
2023-04-07T20:27:49.325Z,100700.97
2023-04-07T20:30:18.545Z,100711.03
2023-04-07T20:32:47.539Z,100704.41
2023-04-07T20:35:16.647Z,100712.16
2023-04-07T20:37:45.452Z,100716.13
2023-04-07T20:40:16.166Z,100715.47
2023-04-07T20:42:46.058Z,100718.06
2023-04-07T20:45:14.963Z,100722.69
2023-04-07T20:47:44.200Z,100731.97
2023-04-07T20:50:13.284Z,100727.03
2023-04-07T20:52:43.831Z,100726.50
2023-04-07T20:55:13.106Z,100730.91
2023-04-07T20:57:43.670Z,100726.13
2023-04-07T21:00:13.313Z,100734.75
2023-04-07T21:02:42.922Z,100738.34
2023-04-07T21:05:12.077Z,100734.03
2023-04-07T21:07:40.572Z,100735.47
2023-04-07T21:10:10.919Z,100732.06
2023-04-07T21:12:39.784Z,100741.03
2023-04-07T21:15:11.593Z,100735.06
2023-04-07T21:17:40.675Z,100733.03
2023-04-07T21:20:10.825Z,100740.19
2023-04-07T21:22:40.281Z,100732.56
2023-04-07T21:25:09.966Z,100746.47
2023-04-07T21:27:39.023Z,100755.19
2023-04-07T21:30:10.747Z,100747.38
2023-04-07T21:32:39.554Z,100748.84
2023-04-07T21:35:09.209Z,100749.09
2023-04-07T21:37:37.855Z,100757.25
2023-04-07T21:40:07.965Z,100759.03
2023-04-07T21:42:36.982Z,100754.97
2023-04-07T21:45:07.455Z,100766.81
2023-04-07T21:47:37.977Z,100766.34
2023-04-07T21:50:08.628Z,100764.19
2023-04-07T21:52:37.178Z,100766.81
2023-04-07T21:55:07.264Z,100768.50
2023-04-07T21:57:37.664Z,100775.47
2023-04-07T22:00:08.739Z,100772.25
2023-04-07T22:02:45.486Z,100777.84
2023-04-07T22:05:14.814Z,100770.06
2023-04-07T22:07:45.014Z,100765.63
2023-04-07T22:10:14.048Z,100777.69
2023-04-07T22:12:43.221Z,100778.34
2023-04-07T22:15:13.633Z,100782.78
2023-04-07T22:17:42.232Z,100778.31
2023-04-07T22:20:13.209Z,100780.75
2023-04-07T22:22:42.141Z,100768.00
2023-04-07T22:25:11.303Z,100772.94
2023-04-07T22:27:40.252Z,100788.16
2023-04-07T22:30:11.015Z,100787.81
2023-04-07T22:32:41.526Z,100786.97
2023-04-07T22:35:12.465Z,100786.81
2023-04-07T22:37:40.967Z,100792.22
2023-04-07T22:40:10.669Z,100787.19
2023-04-07T22:42:40.212Z,100787.06
2023-04-07T22:45:10.244Z,100798.00
2023-04-07T22:47:39.363Z,100792.34
2023-04-07T22:50:09.106Z,100796.41
2023-04-07T22:52:39.070Z,100797.63
2023-04-07T22:55:08.362Z,100792.97
2023-04-07T22:57:37.260Z,100797.63
2023-04-07T23:00:07.187Z,100797.03
2023-04-07T23:02:36.766Z,100796.19
2023-04-07T23:05:07.719Z,100798.59
2023-04-07T23:07:36.337Z,100790.22
2023-04-07T23:10:09.487Z,100808.91
2023-04-07T23:12:39.162Z,100793.81
2023-04-07T23:15:08.857Z,100795.59
2023-04-07T23:17:38.058Z,100797.13
2023-04-07T23:20:08.346Z,100788.75
2023-04-07T23:22:36.924Z,100796.25
2023-04-07T23:25:08.576Z,100794.59
2023-04-07T23:27:37.797Z,100797.75
2023-04-07T23:30:07.833Z,100798.94
2023-04-07T23:32:36.763Z,100804.69
2023-04-07T23:35:06.793Z,100794.28
2023-04-07T23:37:35.673Z,100795.97
2023-04-07T23:40:04.788Z,100806.00
2023-04-07T23:42:35.154Z,100800.75
2023-04-07T23:45:03.913Z,100798.53
2023-04-07T23:47:32.887Z,100802.06
2023-04-07T23:50:02.672Z,100796.31
2023-04-07T23:52:31.620Z,100800.25
2023-04-07T23:55:00.545Z,100797.50
2023-04-07T23:57:29.710Z,100795.91
